sensor_id;sensor_type;location;lat;lon;timestamp;pressure;altitude;pressure_sealevel;temperature;humidity
85936;BME280;76481;54.346;10.210;2024-03-25T00:01:08;99684.78;;;5.41;89.99
85936;BME280;76481;54.346;10.210;2024-03-25T00:03:34;99705.38;;;5.47;89.90
85936;BME280;76481;54.346;10.210;2024-03-25T00:05:59;99700.22;;;5.46;89.59
85936;BME280;76481;54.346;10.210;2024-03-25T00:08:25;99709.84;;;5.45;90.07
85936;BME280;76481;54.346;10.210;2024-03-25T00:10:50;99702.56;;;5.47;90.84
85936;BME280;76481;54.346;10.210;2024-03-25T00:13:16;99709.84;;;5.45;90.34
85936;BME280;76481;54.346;10.210;2024-03-25T00:15:42;99715.00;;;5.46;89.26
85936;BME280;76481;54.346;10.210;2024-03-25T00:18:09;99723.81;;;5.45;90.32
85936;BME280;76481;54.346;10.210;2024-03-25T00:20:36;99723.91;;;5.41;90.16
85936;BME280;76481;54.346;10.210;2024-03-25T00:23:02;99730.22;;;5.45;89.24
85936;BME280;76481;54.346;10.210;2024-03-25T00:25:27;99742.16;;;5.46;91.12
85936;BME280;76481;54.346;10.210;2024-03-25T00:27:53;99729.63;;;5.38;89.79
85936;BME280;76481;54.346;10.210;2024-03-25T00:30:19;99744.19;;;5.45;90.26
85936;BME280;76481;54.346;10.210;2024-03-25T00:32:45;99749.34;;;5.47;90.80
85936;BME280;76481;54.346;10.210;2024-03-25T00:35:10;99748.53;;;5.46;90.26
85936;BME280;76481;54.346;10.210;2024-03-25T00:37:36;99748.75;;;5.39;89.16
85936;BME280;76481;54.346;10.210;2024-03-25T00:40:01;99735.66;;;5.36;89.22
85936;BME280;76481;54.346;10.210;2024-03-25T00:42:27;99729.25;;;5.23;89.42
85936;BME280;76481;54.346;10.210;2024-03-25T00:44:52;99759.03;;;5.42;89.65
85936;BME280;76481;54.346;10.210;2024-03-25T00:47:18;99757.44;;;5.41;89.81
85936;BME280;76481;54.346;10.210;2024-03-25T00:49:43;99761.47;;;5.40;89.48
85936;BME280;76481;54.346;10.210;2024-03-25T00:52:09;99748.84;;;5.36;89.40
85936;BME280;76481;54.346;10.210;2024-03-25T00:54:35;99747.47;;;5.28;89.25
85936;BME280;76481;54.346;10.210;2024-03-25T00:57:00;99763.25;;;5.34;90.10
85936;BME280;76481;54.346;10.210;2024-03-25T00:59:26;99765.72;;;5.32;89.99
85936;BME280;76481;54.346;10.210;2024-03-25T01:01:51;99765.72;;;5.32;90.54
85936;BME280;76481;54.346;10.210;2024-03-25T01:04:17;99766.59;;;5.29;88.96
85936;BME280;76481;54.346;10.210;2024-03-25T01:06:43;99755.59;;;5.22;90.20
85936;BME280;76481;54.346;10.210;2024-03-25T01:09:08;99777.78;;;5.29;90.37
85936;BME280;76481;54.346;10.210;2024-03-25T01:11:35;99769.91;;;5.24;90.68
85936;BME280;76481;54.346;10.210;2024-03-25T01:14:00;99776.63;;;5.27;90.22
85936;BME280;76481;54.346;10.210;2024-03-25T01:16:26;99788.97;;;5.29;90.07
85936;BME280;76481;54.346;10.210;2024-03-25T01:18:52;99782.34;;;5.23;91.30
85936;BME280;76481;54.346;10.210;2024-03-25T01:21:17;99792.63;;;5.26;90.28
85936;BME280;76481;54.346;10.210;2024-03-25T01:23:43;99795.50;;;5.23;90.64
85936;BME280;76481;54.346;10.210;2024-03-25T01:26:08;99801.91;;;5.23;91.21
85936;BME280;76481;54.346;10.210;2024-03-25T01:28:34;99801.47;;;5.25;90.35
85936;BME280;76481;54.346;10.210;2024-03-25T01:31:00;99796.03;;;5.18;91.32
85936;BME280;76481;54.346;10.210;2024-03-25T01:33:25;99809.84;;;5.25;90.89
85936;BME280;76481;54.346;10.210;2024-03-25T01:35:51;99806.78;;;5.19;91.21
85936;BME280;76481;54.346;10.210;2024-03-25T01:38:16;99817.06;;;5.22;91.70
85936;BME280;76481;54.346;10.210;2024-03-25T01:40:42;99808.44;;;5.17;90.50
85936;BME280;76481;54.346;10.210;2024-03-25T01:43:07;99803.66;;;5.17;89.66
85936;BME280;76481;54.346;10.210;2024-03-25T01:45:34;99822.34;;;5.20;90.46
85936;BME280;76481;54.346;10.210;2024-03-25T01:48:04;99826.69;;;5.21;90.53
85936;BME280;76481;54.346;10.210;2024-03-25T01:50:33;99836.31;;;5.20;90.91
85936;BME280;76481;54.346;10.210;2024-03-25T01:53:01;99825.56;;;5.19;90.27
85936;BME280;76481;54.346;10.210;2024-03-25T01:55:28;99840.31;;;5.19;90.24
85936;BME280;76481;54.346;10.210;2024-03-25T01:57:55;99833.22;;;5.15;90.56
85936;BME280;76481;54.346;10.210;2024-03-25T02:00:21;99833.94;;;5.19;91.16
85936;BME280;76481;54.346;10.210;2024-03-25T02:02:50;99836.50;;;5.13;90.26
85936;BME280;76481;54.346;10.210;2024-03-25T02:05:17;99832.09;;;5.12;90.13
85936;BME280;76481;54.346;10.210;2024-03-25T02:07:43;99827.75;;;5.11;90.50
85936;BME280;76481;54.346;10.210;2024-03-25T02:10:09;99832.91;;;5.13;91.05
85936;BME280;76481;54.346;10.210;2024-03-25T02:12:36;99846.75;;;5.16;90.90
85936;BME280;76481;54.346;10.210;2024-03-25T02:15:05;99822.34;;;5.04;90.23
85936;BME280;76481;54.346;10.210;2024-03-25T02:17:31;99844.31;;;5.18;90.60
85936;BME280;76481;54.346;10.210;2024-03-25T02:19:56;99849.91;;;5.18;91.07
85936;BME280;76481;54.346;10.210;2024-03-25T02:22:22;99825.25;;;4.85;90.93
85936;BME280;76481;54.346;10.210;2024-03-25T02:24:51;99852.28;;;5.20;91.03
85936;BME280;76481;54.346;10.210;2024-03-25T02:27:18;99850.09;;;5.11;90.53
85936;BME280;76481;54.346;10.210;2024-03-25T02:29:43;99856.31;;;5.19;90.80
85936;BME280;76481;54.346;10.210;2024-03-25T02:32:10;99847.66;;;5.13;90.16
85936;BME280;76481;54.346;10.210;2024-03-25T02:34:45;99857.94;;;5.16;89.66
85936;BME280;76481;54.346;10.210;2024-03-25T02:37:11;99871.41;;;5.21;89.22
85936;BME280;76481;54.346;10.210;2024-03-25T02:39:37;99847.31;;;5.11;88.78
85936;BME280;76481;54.346;10.210;2024-03-25T02:42:03;99859.41;;;5.21;89.22
85936;BME280;76481;54.346;10.210;2024-03-25T02:44:30;99858.75;;;5.17;88.62
85936;BME280;76481;54.346;10.210;2024-03-25T02:46:56;99858.75;;;5.17;89.14
85936;BME280;76481;54.346;10.210;2024-03-25T02:49:22;99856.94;;;5.10;89.07
85936;BME280;76481;54.346;10.210;2024-03-25T02:51:47;99867.56;;;5.15;88.09
85936;BME280;76481;54.346;10.210;2024-03-25T02:54:12;99863.72;;;5.09;89.45
85936;BME280;76481;54.346;10.210;2024-03-25T02:56:40;99862.94;;;5.09;89.18
85936;BME280;76481;54.346;10.210;2024-03-25T02:59:06;99879.59;;;5.12;89.23
85936;BME280;76481;54.346;10.210;2024-03-25T03:01:31;99876.81;;;5.12;89.98
85936;BME280;76481;54.346;10.210;2024-03-25T03:03:57;99878.03;;;5.11;89.97
85936;BME280;76481;54.346;10.210;2024-03-25T03:06:22;99888.84;;;5.09;90.36
85936;BME280;76481;54.346;10.210;2024-03-25T03:08:48;99881.03;;;5.04;90.79
85936;BME280;76481;54.346;10.210;2024-03-25T03:11:13;99892.00;;;5.11;89.34
85936;BME280;76481;54.346;10.210;2024-03-25T03:13:39;99890.09;;;5.08;89.16
85936;BME280;76481;54.346;10.210;2024-03-25T03:16:05;99887.03;;;5.03;89.55
85936;BME280;76481;54.346;10.210;2024-03-25T03:18:30;99887.81;;;5.03;90.73
85936;BME280;76481;54.346;10.210;2024-03-25T03:20:55;99905.19;;;5.11;89.73
85936;BME280;76481;54.346;10.210;2024-03-25T03:23:22;99908.41;;;5.09;90.19
85936;BME280;76481;54.346;10.210;2024-03-25T03:25:47;99903.25;;;5.08;89.77
85936;BME280;76481;54.346;10.210;2024-03-25T03:28:13;99912.81;;;5.10;90.02
85936;BME280;76481;54.346;10.210;2024-03-25T03:30:40;99911.66;;;5.08;89.43
85936;BME280;76481;54.346;10.210;2024-03-25T03:33:06;99912.81;;;5.10;90.61
85936;BME280;76481;54.346;10.210;2024-03-25T03:35:33;99921.94;;;5.11;89.67
85936;BME280;76481;54.346;10.210;2024-03-25T03:37:58;99903.69;;;5.06;89.39
85936;BME280;76481;54.346;10.210;2024-03-25T03:40:24;99922.81;;;5.08;89.41
85936;BME280;76481;54.346;10.210;2024-03-25T03:42:49;99930.06;;;5.05;89.35
85936;BME280;76481;54.346;10.210;2024-03-25T03:45:14;99923.78;;;5.01;90.71
85936;BME280;76481;54.346;10.210;2024-03-25T03:47:40;99926.84;;;5.07;89.41
85936;BME280;76481;54.346;10.210;2024-03-25T03:50:06;99935.31;;;5.03;89.39
85936;BME280;76481;54.346;10.210;2024-03-25T03:52:33;99927.78;;;5.00;89.56
85936;BME280;76481;54.346;10.210;2024-03-25T03:54:58;99935.47;;;4.96;90.02
85936;BME280;76481;54.346;10.210;2024-03-25T03:57:24;99935.03;;;4.98;89.95
85936;BME280;76481;54.346;10.210;2024-03-25T03:59:51;99941.22;;;4.89;88.97
85936;BME280;76481;54.346;10.210;2024-03-25T04:02:20;99949.59;;;4.89;89.78
85936;BME280;76481;54.346;10.210;2024-03-25T04:04:45;99954.84;;;4.87;88.94
85936;BME280;76481;54.346;10.210;2024-03-25T04:07:11;99963.00;;;4.78;89.03
85936;BME280;76481;54.346;10.210;2024-03-25T04:09:36;99961.94;;;4.72;88.62
85936;BME280;76481;54.346;10.210;2024-03-25T04:12:02;99975.16;;;4.72;88.12
85936;BME280;76481;54.346;10.210;2024-03-25T04:14:27;99984.28;;;4.72;87.28
85936;BME280;76481;54.346;10.210;2024-03-25T04:16:52;99989.09;;;4.72;88.35
85936;BME280;76481;54.346;10.210;2024-03-25T04:19:25;99974.50;;;4.64;88.83
85936;BME280;76481;54.346;10.210;2024-03-25T04:21:50;99982.94;;;4.61;87.38
85936;BME280;76481;54.346;10.210;2024-03-25T04:24:17;99990.88;;;4.62;86.96
85936;BME280;76481;54.346;10.210;2024-03-25T04:26:44;99998.84;;;4.64;86.53
85936;BME280;76481;54.346;10.210;2024-03-25T04:29:09;99994.22;;;4.57;86.52
85936;BME280;76481;54.346;10.210;2024-03-25T04:31:35;100002.91;;;4.59;86.26
85936;BME280;76481;54.346;10.210;2024-03-25T04:34:01;100018.91;;;4.59;86.93
85936;BME280;76481;54.346;10.210;2024-03-25T04:36:27;100001.06;;;4.53;86.19
85936;BME280;76481;54.346;10.210;2024-03-25T04:38:52;100008.66;;;4.52;86.16
85936;BME280;76481;54.346;10.210;2024-03-25T04:41:18;100023.69;;;4.58;85.91
85936;BME280;76481;54.346;10.210;2024-03-25T04:43:43;100019.38;;;4.54;84.89
85936;BME280;76481;54.346;10.210;2024-03-25T04:46:09;100021.38;;;4.53;84.62
85936;BME280;76481;54.346;10.210;2024-03-25T04:48:34;100030.13;;;4.55;83.88
85936;BME280;76481;54.346;10.210;2024-03-25T04:50:59;100036.94;;;4.54;84.41
85936;BME280;76481;54.346;10.210;2024-03-25T04:53:25;100030.34;;;4.45;84.95
85936;BME280;76481;54.346;10.210;2024-03-25T04:55:51;100038.66;;;4.48;84.93
85936;BME280;76481;54.346;10.210;2024-03-25T04:58:16;100047.09;;;4.45;83.51
85936;BME280;76481;54.346;10.210;2024-03-25T05:00:41;100054.25;;;4.46;83.44
85936;BME280;76481;54.346;10.210;2024-03-25T05:03:07;100036.97;;;4.31;82.83
85936;BME280;76481;54.346;10.210;2024-03-25T05:05:33;100046.94;;;4.32;81.76
85936;BME280;76481;54.346;10.210;2024-03-25T05:07:59;100046.19;;;4.28;83.04
85936;BME280;76481;54.346;10.210;2024-03-25T05:10:24;100049.63;;;4.16;83.64
85936;BME280;76481;54.346;10.210;2024-03-25T05:12:50;100048.59;;;4.06;83.01
85936;BME280;76481;54.346;10.210;2024-03-25T05:15:17;100063.22;;;4.14;82.71
85936;BME280;76481;54.346;10.210;2024-03-25T05:17:43;100059.38;;;4.04;82.84
85936;BME280;76481;54.346;10.210;2024-03-25T05:20:09;100065.84;;;4.01;83.60
85936;BME280;76481;54.346;10.210;2024-03-25T05:22:34;100053.78;;;3.85;83.74
85936;BME280;76481;54.346;10.210;2024-03-25T05:25:00;100071.19;;;3.92;83.22
85936;BME280;76481;54.346;10.210;2024-03-25T05:27:25;100053.09;;;3.77;84.26
85936;BME280;76481;54.346;10.210;2024-03-25T05:29:51;100069.72;;;3.84;84.58
85936;BME280;76481;54.346;10.210;2024-03-25T05:32:16;100079.72;;;3.82;84.34
85936;BME280;76481;54.346;10.210;2024-03-25T05:34:42;100041.03;;;3.61;84.66
85936;BME280;76481;54.346;10.210;2024-03-25T05:37:08;100076.38;;;3.90;84.10
85936;BME280;76481;54.346;10.210;2024-03-25T05:39:33;100085.88;;;3.93;83.71
85936;BME280;76481;54.346;10.210;2024-03-25T05:41:59;100079.16;;;3.90;85.18
85936;BME280;76481;54.346;10.210;2024-03-25T05:44:24;100091.00;;;3.98;84.47
85936;BME280;76481;54.346;10.210;2024-03-25T05:46:50;100085.00;;;3.99;85.17
85936;BME280;76481;54.346;10.210;2024-03-25T05:49:15;100083.00;;;4.00;84.90
85936;BME280;76481;54.346;10.210;2024-03-25T05:51:40;100088.88;;;4.05;84.38
85936;BME280;76481;54.346;10.210;2024-03-25T05:54:06;100064.25;;;4.00;84.62
85936;BME280;76481;54.346;10.210;2024-03-25T05:56:31;100083.97;;;4.13;84.85
85936;BME280;76481;54.346;10.210;2024-03-25T05:58:57;100080.75;;;4.14;84.76
85936;BME280;76481;54.346;10.210;2024-03-25T06:01:23;100084.69;;;4.17;84.19
85936;BME280;76481;54.346;10.210;2024-03-25T06:03:48;100086.25;;;4.18;83.33
85936;BME280;76481;54.346;10.210;2024-03-25T06:06:14;100075.66;;;4.09;84.26
85936;BME280;76481;54.346;10.210;2024-03-25T06:08:39;100072.88;;;4.09;84.30
85936;BME280;76481;54.346;10.210;2024-03-25T06:11:05;100094.31;;;4.12;84.45
85936;BME280;76481;54.346;10.210;2024-03-25T06:13:31;100080.44;;;4.09;84.65
85936;BME280;76481;54.346;10.210;2024-03-25T06:15:56;100093.00;;;4.20;84.57
85936;BME280;76481;54.346;10.210;2024-03-25T06:18:22;100092.63;;;4.18;84.92
85936;BME280;76481;54.346;10.210;2024-03-25T06:20:48;100081.09;;;4.16;84.92
85936;BME280;76481;54.346;10.210;2024-03-25T06:23:27;100112.56;;;4.40;84.55
85936;BME280;76481;54.346;10.210;2024-03-25T06:25:53;100098.59;;;4.40;83.23
85936;BME280;76481;54.346;10.210;2024-03-25T06:28:20;100117.38;;;4.59;83.15
85936;BME280;76481;54.346;10.210;2024-03-25T06:30:46;100114.66;;;4.56;83.92
85936;BME280;76481;54.346;10.210;2024-03-25T06:33:30;100092.75;;;4.54;83.10
85936;BME280;76481;54.346;10.210;2024-03-25T06:36:15;100112.59;;;4.99;81.88
85936;BME280;76481;54.346;10.210;2024-03-25T06:38:41;100117.56;;;5.27;82.50
85936;BME280;76481;54.346;10.210;2024-03-25T06:41:10;100131.41;;;5.34;82.34
85936;BME280;76481;54.346;10.210;2024-03-25T06:43:36;100113.47;;;5.51;80.98
85936;BME280;76481;54.346;10.210;2024-03-25T06:46:03;100132.16;;;5.54;81.82
85936;BME280;76481;54.346;10.210;2024-03-25T06:48:29;100119.47;;;5.49;83.11
85936;BME280;76481;54.346;10.210;2024-03-25T06:50:59;100127.03;;;5.68;82.24
85936;BME280;76481;54.346;10.210;2024-03-25T06:53:24;100138.41;;;5.77;83.03
85936;BME280;76481;54.346;10.210;2024-03-25T06:58:20;100135.59;;;5.77;81.73
85936;BME280;76481;54.346;10.210;2024-03-25T07:00:46;100143.19;;;5.77;81.09
85936;BME280;76481;54.346;10.210;2024-03-25T07:03:14;100118.78;;;5.45;83.31
85936;BME280;76481;54.346;10.210;2024-03-25T07:05:39;100144.84;;;5.58;80.84
85936;BME280;76481;54.346;10.210;2024-03-25T07:08:05;100140.13;;;5.55;82.46
85936;BME280;76481;54.346;10.210;2024-03-25T07:10:30;100138.88;;;5.56;82.38
85936;BME280;76481;54.346;10.210;2024-03-25T07:12:56;100135.66;;;5.58;82.31
85936;BME280;76481;54.346;10.210;2024-03-25T07:15:21;100151.31;;;5.55;80.50
85936;BME280;76481;54.346;10.210;2024-03-25T07:17:47;100147.69;;;5.55;81.54
85936;BME280;76481;54.346;10.210;2024-03-25T07:20:12;100155.44;;;5.67;82.06
85936;BME280;76481;54.346;10.210;2024-03-25T07:22:38;100153.41;;;5.51;80.63
85936;BME280;76481;54.346;10.210;2024-03-25T07:25:04;100162.13;;;5.53;81.35
85936;BME280;76481;54.346;10.210;2024-03-25T07:27:29;100161.25;;;5.56;81.93
85936;BME280;76481;54.346;10.210;2024-03-25T07:29:56;100157.16;;;5.61;82.44
85936;BME280;76481;54.346;10.210;2024-03-25T07:32:21;100167.53;;;5.60;81.88
85936;BME280;76481;54.346;10.210;2024-03-25T07:34:47;100157.91;;;5.45;82.25
85936;BME280;76481;54.346;10.210;2024-03-25T07:37:13;100173.56;;;5.59;81.97
85936;BME280;76481;54.346;10.210;2024-03-25T07:39:38;100164.06;;;5.72;81.37
85936;BME280;76481;54.346;10.210;2024-03-25T07:42:04;100183.38;;;5.67;82.20
85936;BME280;76481;54.346;10.210;2024-03-25T07:44:29;100176.00;;;5.76;83.38
85936;BME280;76481;54.346;10.210;2024-03-25T07:46:55;100174.31;;;5.63;82.78
85936;BME280;76481;54.346;10.210;2024-03-25T07:49:20;100184.41;;;5.57;83.99
85936;BME280;76481;54.346;10.210;2024-03-25T07:51:46;100184.22;;;5.48;83.75
85936;BME280;76481;54.346;10.210;2024-03-25T07:54:12;100188.31;;;5.43;84.18
85936;BME280;76481;54.346;10.210;2024-03-25T07:56:41;100188.72;;;5.61;84.23
85936;BME280;76481;54.346;10.210;2024-03-25T07:59:07;100188.97;;;5.86;83.84
85936;BME280;76481;54.346;10.210;2024-03-25T08:01:35;100187.88;;;6.16;81.19
85936;BME280;76481;54.346;10.210;2024-03-25T08:04:06;100162.50;;;6.39;79.88
85936;BME280;76481;54.346;10.210;2024-03-25T08:06:35;100180.50;;;6.54;79.06
85936;BME280;76481;54.346;10.210;2024-03-25T08:09:00;100181.78;;;6.82;78.77
85936;BME280;76481;54.346;10.210;2024-03-25T08:11:26;100190.69;;;6.32;77.32
85936;BME280;76481;54.346;10.210;2024-03-25T08:13:53;100202.31;;;6.30;79.68
85936;BME280;76481;54.346;10.210;2024-03-25T08:16:25;100202.22;;;6.34;78.83
85936;BME280;76481;54.346;10.210;2024-03-25T08:18:50;100199.69;;;6.23;80.01
85936;BME280;76481;54.346;10.210;2024-03-25T08:21:16;100203.19;;;6.43;80.29
85936;BME280;76481;54.346;10.210;2024-03-25T08:23:47;100189.34;;;6.53;79.01
85936;BME280;76481;54.346;10.210;2024-03-25T08:26:13;100207.91;;;6.47;78.96
85936;BME280;76481;54.346;10.210;2024-03-25T08:28:38;100189.53;;;6.46;79.57
85936;BME280;76481;54.346;10.210;2024-03-25T08:31:16;100197.53;;;6.76;78.27
85936;BME280;76481;54.346;10.210;2024-03-25T08:33:41;100200.69;;;6.78;76.81
85936;BME280;76481;54.346;10.210;2024-03-25T08:36:07;100199.69;;;6.56;79.44
85936;BME280;76481;54.346;10.210;2024-03-25T08:38:33;100205.88;;;6.31;79.09
85936;BME280;76481;54.346;10.210;2024-03-25T08:40:59;100215.50;;;6.30;79.04
85936;BME280;76481;54.346;10.210;2024-03-25T08:43:27;100198.63;;;6.33;78.98
85936;BME280;76481;54.346;10.210;2024-03-25T08:45:56;100202.78;;;6.74;77.99
85936;BME280;76481;54.346;10.210;2024-03-25T08:48:25;100171.84;;;6.16;77.78
85936;BME280;76481;54.346;10.210;2024-03-25T08:50:50;100218.06;;;6.24;80.20
85936;BME280;76481;54.346;10.210;2024-03-25T08:53:40;100211.03;;;6.00;79.25
85936;BME280;76481;54.346;10.210;2024-03-25T08:56:05;100224.56;;;6.02;79.09
85936;BME280;76481;54.346;10.210;2024-03-25T08:58:31;100219.25;;;6.07;80.31
85936;BME280;76481;54.346;10.210;2024-03-25T09:00:56;100205.63;;;6.09;78.63
85936;BME280;76481;54.346;10.210;2024-03-25T09:03:25;100211.59;;;6.27;78.36
85936;BME280;76481;54.346;10.210;2024-03-25T09:05:53;100214.91;;;6.38;77.08
85936;BME280;76481;54.346;10.210;2024-03-25T09:08:19;100215.41;;;6.66;76.07
85936;BME280;76481;54.346;10.210;2024-03-25T09:11:03;100220.47;;;6.87;76.10
85936;BME280;76481;54.346;10.210;2024-03-25T09:13:36;100220.66;;;6.64;74.96
85936;BME280;76481;54.346;10.210;2024-03-25T09:16:02;100223.56;;;6.76;75.83
85936;BME280;76481;54.346;10.210;2024-03-25T09:18:30;100226.09;;;7.15;73.94
85936;BME280;76481;54.346;10.210;2024-03-25T09:20:56;100232.38;;;6.91;72.72
85936;BME280;76481;54.346;10.210;2024-03-25T09:23:21;100225.59;;;7.04;73.36
85936;BME280;76481;54.346;10.210;2024-03-25T09:25:53;100219.59;;;7.47;70.80
85936;BME280;76481;54.346;10.210;2024-03-25T09:28:19;100180.72;;;7.33;69.78
85936;BME280;76481;54.346;10.210;2024-03-25T09:30:47;100233.25;;;7.45;71.63
85936;BME280;76481;54.346;10.210;2024-03-25T09:33:14;100209.78;;;7.80;71.30
85936;BME280;76481;54.346;10.210;2024-03-25T09:35:42;100174.75;;;7.97;69.19
85936;BME280;76481;54.346;10.210;2024-03-25T09:38:14;100216.44;;;7.98;69.27
85936;BME280;76481;54.346;10.210;2024-03-25T09:40:40;100214.59;;;8.54;66.64
85936;BME280;76481;54.346;10.210;2024-03-25T09:43:32;100210.47;;;8.21;65.89
85936;BME280;76481;54.346;10.210;2024-03-25T09:46:04;100229.72;;;7.69;68.64
85936;BME280;76481;54.346;10.210;2024-03-25T09:48:31;100249.72;;;6.37;70.93
85936;BME280;76481;54.346;10.210;2024-03-25T09:50:57;100249.84;;;5.98;73.42
85936;BME280;76481;54.346;10.210;2024-03-25T09:53:23;100246.56;;;6.19;74.18
85936;BME280;76481;54.346;10.210;2024-03-25T09:55:49;100242.66;;;5.97;73.81
85936;BME280;76481;54.346;10.210;2024-03-25T09:58:15;100253.13;;;6.13;73.13
85936;BME280;76481;54.346;10.210;2024-03-25T10:00:43;100225.16;;;6.29;72.62
85936;BME280;76481;54.346;10.210;2024-03-25T10:03:08;100254.28;;;6.64;72.04
85936;BME280;76481;54.346;10.210;2024-03-25T10:05:34;100239.94;;;7.06;70.39
85936;BME280;76481;54.346;10.210;2024-03-25T10:08:00;100244.00;;;7.34;70.50
85936;BME280;76481;54.346;10.210;2024-03-25T10:10:25;100246.78;;;8.28;65.89
85936;BME280;76481;54.346;10.210;2024-03-25T10:12:55;100243.13;;;7.90;67.38
85936;BME280;76481;54.346;10.210;2024-03-25T10:15:20;100247.72;;;7.43;67.04
85936;BME280;76481;54.346;10.210;2024-03-25T10:17:49;100232.56;;;8.70;64.87
85936;BME280;76481;54.346;10.210;2024-03-25T10:20:14;100241.59;;;8.52;64.95
85936;BME280;76481;54.346;10.210;2024-03-25T10:22:44;100246.59;;;7.82;65.65
85936;BME280;76481;54.346;10.210;2024-03-25T10:25:25;100251.81;;;8.08;65.81
85936;BME280;76481;54.346;10.210;2024-03-25T10:28:01;100257.91;;;8.57;66.40
85936;BME280;76481;54.346;10.210;2024-03-25T10:30:27;100269.84;;;7.25;72.42
85936;BME280;76481;54.346;10.210;2024-03-25T10:33:06;100267.41;;;7.56;71.20
85936;BME280;76481;54.346;10.210;2024-03-25T10:35:35;100268.78;;;7.64;71.95
85936;BME280;76481;54.346;10.210;2024-03-25T10:38:04;100274.53;;;7.16;69.19
85936;BME280;76481;54.346;10.210;2024-03-25T10:40:35;100262.59;;;7.28;69.86
85936;BME280;76481;54.346;10.210;2024-03-25T10:43:05;100263.47;;;8.19;68.04
85936;BME280;76481;54.346;10.210;2024-03-25T10:45:34;100255.88;;;7.66;64.67
85936;BME280;76481;54.346;10.210;2024-03-25T10:48:26;100266.69;;;7.80;63.97
85936;BME280;76481;54.346;10.210;2024-03-25T10:50:55;100257.31;;;8.75;63.42
85936;BME280;76481;54.346;10.210;2024-03-25T10:53:21;100253.94;;;8.29;62.77
85936;BME280;76481;54.346;10.210;2024-03-25T10:55:50;100254.94;;;8.73;63.12
85936;BME280;76481;54.346;10.210;2024-03-25T10:58:16;100249.34;;;8.35;64.20
85936;BME280;76481;54.346;10.210;2024-03-25T11:00:43;100257.66;;;8.64;64.13
85936;BME280;76481;54.346;10.210;2024-03-25T11:03:10;100245.75;;;9.07;62.04
85936;BME280;76481;54.346;10.210;2024-03-25T11:05:36;100245.97;;;8.53;64.15
85936;BME280;76481;54.346;10.210;2024-03-25T11:08:12;100253.41;;;8.47;64.04
85936;BME280;76481;54.346;10.210;2024-03-25T11:10:46;100257.34;;;9.09;62.79
85936;BME280;76481;54.346;10.210;2024-03-25T11:13:16;100259.13;;;8.43;63.99
85936;BME280;76481;54.346;10.210;2024-03-25T11:15:43;100266.09;;;8.51;64.72
85936;BME280;76481;54.346;10.210;2024-03-25T11:18:17;100258.19;;;8.09;63.50
85936;BME280;76481;54.346;10.210;2024-03-25T11:20:44;100267.84;;;8.08;65.65
85936;BME280;76481;54.346;10.210;2024-03-25T11:23:11;100258.09;;;8.00;62.78
85936;BME280;76481;54.346;10.210;2024-03-25T11:25:37;100266.31;;;7.66;61.50
85936;BME280;76481;54.346;10.210;2024-03-25T11:28:03;100253.84;;;8.33;59.08
85936;BME280;76481;54.346;10.210;2024-03-25T11:30:29;100258.09;;;8.00;59.98
85936;BME280;76481;54.346;10.210;2024-03-25T11:32:57;100257.56;;;8.55;59.99
85936;BME280;76481;54.346;10.210;2024-03-25T11:35:24;100250.66;;;9.15;57.12
85936;BME280;76481;54.346;10.210;2024-03-25T11:37:50;100245.31;;;9.08;54.78
85936;BME280;76481;54.346;10.210;2024-03-25T11:40:17;100258.56;;;8.61;57.73
85936;BME280;76481;54.346;10.210;2024-03-25T11:42:45;100250.34;;;8.04;57.21
85936;BME280;76481;54.346;10.210;2024-03-25T11:45:21;100260.50;;;7.73;58.95
85936;BME280;76481;54.346;10.210;2024-03-25T11:47:49;100258.06;;;7.87;58.88
85936;BME280;76481;54.346;10.210;2024-03-25T11:50:16;100266.09;;;7.73;59.45
85936;BME280;76481;54.346;10.210;2024-03-25T11:52:42;100259.50;;;7.79;58.02
85936;BME280;76481;54.346;10.210;2024-03-25T11:55:08;100253.31;;;7.72;59.22
85936;BME280;76481;54.346;10.210;2024-03-25T11:57:35;100249.44;;;8.07;56.77
85936;BME280;76481;54.346;10.210;2024-03-25T12:00:01;100244.75;;;8.54;54.26
85936;BME280;76481;54.346;10.210;2024-03-25T12:02:42;100249.09;;;8.80;54.97
85936;BME280;76481;54.346;10.210;2024-03-25T12:05:08;100251.34;;;8.85;54.51
85936;BME280;76481;54.346;10.210;2024-03-25T12:07:33;100242.84;;;8.38;54.71
85936;BME280;76481;54.346;10.210;2024-03-25T12:10:01;100244.09;;;8.37;54.60
85936;BME280;76481;54.346;10.210;2024-03-25T12:12:45;100250.50;;;8.38;53.83
85936;BME280;76481;54.346;10.210;2024-03-25T12:15:11;100236.31;;;8.54;54.67
85936;BME280;76481;54.346;10.210;2024-03-25T12:17:36;100247.31;;;8.61;55.12
85936;BME280;76481;54.346;10.210;2024-03-25T12:20:06;100244.94;;;8.09;55.02
85936;BME280;76481;54.346;10.210;2024-03-25T12:22:36;100241.97;;;8.29;54.57
85936;BME280;76481;54.346;10.210;2024-03-25T12:25:03;100245.50;;;8.67;53.34
85936;BME280;76481;54.346;10.210;2024-03-25T12:27:31;100244.81;;;8.88;53.44
85936;BME280;76481;54.346;10.210;2024-03-25T12:30:07;100231.88;;;8.78;53.67
85936;BME280;76481;54.346;10.210;2024-03-25T12:32:40;100229.03;;;9.25;52.71
85936;BME280;76481;54.346;10.210;2024-03-25T12:35:10;100233.56;;;8.88;53.29
85936;BME280;76481;54.346;10.210;2024-03-25T12:37:40;100239.13;;;9.56;53.92
85936;BME280;76481;54.346;10.210;2024-03-25T12:40:11;100214.25;;;9.76;51.49
85936;BME280;76481;54.346;10.210;2024-03-25T12:42:45;100171.59;;;10.17;50.11
85936;BME280;76481;54.346;10.210;2024-03-25T12:45:43;100173.69;;;10.04;49.79
85936;BME280;76481;54.346;10.210;2024-03-25T12:48:14;100184.41;;;9.57;49.35
85936;BME280;76481;54.346;10.210;2024-03-25T12:50:40;100161.75;;;9.91;49.59
85936;BME280;76481;54.346;10.210;2024-03-25T12:53:18;100188.06;;;9.24;53.28
85936;BME280;76481;54.346;10.210;2024-03-25T12:56:03;100192.03;;;9.26;53.95